createdAt,value
2016-10-23T00:00:06.574Z,49.82
2016-10-23T00:00:47.258Z,49.27
2016-10-23T00:01:27.949Z,49.27
2016-10-23T00:02:08.613Z,49.95
2016-10-23T00:02:49.295Z,49.56
2016-10-23T00:03:29.976Z,49.34
2016-10-23T00:04:10.624Z,49.85
2016-10-23T00:04:51.253Z,49.92
2016-10-23T00:05:31.942Z,50.43
2016-10-23T00:06:12.625Z,50.12
2016-10-23T00:06:53.249Z,50.43
2016-10-23T00:07:33.936Z,50.12
2016-10-23T00:08:14.623Z,50.02
2016-10-23T00:08:55.325Z,50.24
2016-10-23T00:09:36.036Z,50.43
2016-10-23T00:10:16.752Z,50.4
2016-10-23T00:10:57.376Z,50.12
2016-10-23T00:11:38.082Z,50.43
2016-10-23T00:12:18.788Z,50.04
2016-10-23T00:12:59.444Z,50.04
2016-10-23T00:13:40.120Z,50.31
2016-10-23T00:14:20.812Z,50.43
2016-10-23T00:15:01.500Z,50.4
2016-10-23T00:15:42.174Z,50.33
2016-10-23T00:16:22.871Z,50.21
2016-10-23T00:17:04.442Z,50.43
2016-10-23T00:17:44.197Z,50.33
2016-10-23T00:18:24.888Z,50.4
2016-10-23T00:19:05.586Z,49.95
2016-10-23T00:19:46.267Z,50.4
2016-10-23T00:20:26.933Z,50.52
2016-10-23T00:21:07.628Z,50.4
2016-10-23T00:21:48.327Z,50.5
2016-10-23T00:22:29.048Z,50.43
2016-10-23T00:23:09.722Z,50.33
2016-10-23T00:23:50.418Z,50.4
2016-10-23T00:24:31.127Z,50.33
2016-10-23T00:25:11.796Z,50.31
2016-10-23T00:25:52.466Z,50.89
2016-10-23T00:26:33.168Z,50.82
2016-10-23T00:27:13.839Z,50.52
2016-10-23T00:27:54.561Z,50.62
2016-10-23T00:28:35.223Z,50.82
2016-10-23T00:29:15.907Z,50.92
2016-10-23T00:29:56.556Z,50.82
2016-10-23T00:30:37.241Z,51.08
2016-10-23T00:31:17.934Z,50.82
2016-10-23T00:31:58.656Z,50.5
2016-10-23T00:32:39.290Z,50.52
2016-10-23T00:33:19.982Z,50.6
2016-10-23T00:34:00.712Z,50.62
2016-10-23T00:34:41.913Z,50.62
2016-10-23T00:35:22.598Z,50.52
2016-10-23T00:36:03.293Z,50.72
2016-10-23T00:36:43.994Z,50.82
2016-10-23T00:37:24.641Z,50.52
2016-10-23T00:38:05.313Z,50.6
2016-10-23T00:38:45.983Z,50.52
2016-10-23T00:39:26.667Z,50.79
2016-10-23T00:40:07.345Z,51.01
2016-10-23T00:40:48.028Z,51.01
2016-10-23T00:41:28.683Z,51.1
2016-10-23T00:42:09.378Z,50.79
2016-10-23T00:42:50.059Z,50.72
2016-10-23T00:43:30.780Z,50.92
2016-10-23T00:44:11.425Z,50.89
2016-10-23T00:44:52.155Z,50.89
2016-10-23T00:45:32.850Z,50.52
2016-10-23T00:46:13.527Z,50.62
2016-10-23T00:46:54.258Z,50.52
2016-10-23T00:47:34.923Z,50.79
2016-10-23T00:48:15.608Z,50.82
2016-10-23T00:48:56.335Z,51.01
2016-10-23T00:49:36.947Z,50.92
2016-10-23T00:50:17.621Z,50.6
2016-10-23T00:50:58.325Z,50.62
2016-10-23T00:51:39.026Z,50.52
2016-10-23T00:52:19.715Z,50.92
2016-10-23T00:53:00.441Z,51.1
2016-10-23T00:53:41.152Z,51.01
2016-10-23T00:54:21.837Z,51.08
2016-10-23T00:55:02.525Z,51.01
2016-10-23T00:55:43.219Z,50.89
2016-10-23T00:56:23.893Z,51.3
2016-10-23T00:57:04.588Z,51.01
2016-10-23T00:57:45.281Z,50.98
2016-10-23T00:58:25.985Z,51.08
2016-10-23T00:59:06.625Z,51.1
2016-10-23T00:59:47.293Z,51.01
2016-10-23T01:00:27.981Z,51.01
2016-10-23T01:01:08.666Z,50.82
2016-10-23T01:01:49.374Z,51.01
2016-10-23T01:02:30.061Z,51.1
2016-10-23T01:03:10.710Z,50.92
2016-10-23T01:03:51.425Z,50.6
2016-10-23T01:04:32.079Z,50.52
2016-10-23T01:05:12.759Z,50.4
2016-10-23T01:05:53.469Z,50.4
2016-10-23T01:06:34.143Z,51.01
2016-10-23T01:07:14.823Z,50.82
2016-10-23T01:07:55.484Z,51.2
2016-10-23T01:08:36.144Z,50.92
2016-10-23T01:09:16.831Z,51.01
2016-10-23T01:09:57.496Z,51.59
2016-10-23T01:10:38.195Z,51.01
2016-10-23T01:11:18.866Z,50.92
2016-10-23T01:11:59.569Z,50.92
2016-10-23T01:12:40.245Z,50.72
2016-10-23T01:13:20.908Z,50.82
2016-10-23T01:14:01.616Z,51.01
2016-10-23T01:14:42.269Z,50.89
2016-10-23T01:15:22.923Z,50.82
2016-10-23T01:16:03.535Z,50.89
2016-10-23T01:16:44.244Z,51.01
2016-10-23T01:17:24.929Z,50.92
2016-10-23T01:18:05.644Z,50.82
2016-10-23T01:18:46.313Z,50.82
2016-10-23T01:19:27.031Z,50.89
2016-10-23T01:20:07.713Z,51.4
2016-10-23T01:20:48.361Z,51.2
2016-10-23T01:21:29.076Z,51.4
2016-10-23T01:22:09.802Z,50.89
2016-10-23T01:22:50.454Z,50.82
2016-10-23T01:23:31.131Z,50.92
2016-10-23T01:24:11.792Z,51.1
2016-10-23T01:24:52.468Z,51.01
2016-10-23T01:25:33.122Z,51.1
2016-10-23T01:26:13.819Z,51.59
2016-10-23T01:26:54.518Z,51.3
2016-10-23T01:27:35.195Z,51.3
2016-10-23T01:28:15.878Z,51.1
2016-10-23T01:28:56.583Z,51.2
2016-10-23T01:29:37.248Z,51.01
2016-10-23T01:30:17.929Z,50.82
2016-10-23T01:30:58.593Z,50.82
2016-10-23T01:31:39.283Z,50.82
2016-10-23T01:32:19.981Z,51.2
2016-10-23T01:33:00.601Z,51.2
2016-10-23T01:33:41.303Z,51.1
2016-10-23T01:34:22.003Z,50.92
2016-10-23T01:35:02.729Z,50.98
2016-10-23T01:35:43.423Z,51.01
2016-10-23T01:36:24.111Z,51.5
2016-10-23T01:37:04.796Z,51.4
2016-10-23T01:37:45.486Z,50.89
2016-10-23T01:38:26.160Z,51.4
2016-10-23T01:39:06.855Z,51.2
2016-10-23T01:39:47.534Z,51.4
2016-10-23T01:40:28.300Z,51.3
2016-10-23T01:41:08.989Z,51.37
2016-10-23T01:41:49.715Z,51.3
2016-10-23T01:42:30.416Z,51.28
2016-10-23T01:43:11.107Z,50.43
2016-10-23T01:43:51.778Z,51.28
2016-10-23T01:44:32.452Z,51.18
2016-10-23T01:45:13.198Z,51.1
2016-10-23T01:45:53.850Z,51.01
2016-10-23T01:46:34.533Z,51.2
2016-10-23T01:47:15.237Z,50.82
2016-10-23T01:47:55.906Z,51.2
2016-10-23T01:48:36.570Z,50.82
2016-10-23T01:49:17.245Z,51.4
2016-10-23T01:49:57.876Z,51.47
2016-10-23T01:50:38.572Z,51.3
2016-10-23T01:51:19.240Z,51.28
2016-10-23T01:51:59.959Z,51.3
2016-10-23T01:52:40.608Z,51.37
2016-10-23T01:53:21.302Z,50.89
2016-10-23T01:54:01.971Z,50.89
2016-10-23T01:54:42.717Z,50.98
2016-10-23T01:55:23.379Z,50.82
2016-10-23T01:56:04.090Z,51.01
2016-10-23T01:56:44.812Z,50.89
2016-10-23T01:57:25.493Z,50.79
2016-10-23T01:58:06.238Z,51.3
2016-10-23T01:58:46.908Z,51.18
2016-10-23T01:59:27.602Z,51.37
2016-10-23T02:00:08.302Z,51.4
2016-10-23T02:00:49.011Z,51.5
2016-10-23T02:01:29.717Z,51.28
2016-10-23T02:02:10.445Z,51.3
2016-10-23T02:02:51.104Z,51.4
2016-10-23T02:03:31.793Z,51.18
2016-10-23T02:04:12.466Z,51.01
2016-10-23T02:04:53.163Z,51.37
2016-10-23T02:05:33.867Z,51.3
2016-10-23T02:06:14.555Z,51.2
2016-10-23T02:06:55.236Z,51.3
2016-10-23T02:07:35.921Z,51.3
2016-10-23T02:08:16.655Z,51.28
2016-10-23T02:08:57.337Z,51.3
2016-10-23T02:09:37.984Z,51.4
2016-10-23T02:10:18.641Z,51.3
2016-10-23T02:10:59.369Z,51.1
2016-10-23T02:11:40.015Z,51.3
2016-10-23T02:12:20.731Z,50.4
2016-10-23T02:13:01.431Z,51.4
2016-10-23T02:13:42.191Z,51.4
2016-10-23T02:14:22.812Z,51.28
2016-10-23T02:15:03.525Z,51.37
2016-10-23T02:15:44.204Z,51.3
2016-10-23T02:16:24.863Z,51.47
2016-10-23T02:17:05.538Z,51.2
2016-10-23T02:17:46.208Z,51.18
2016-10-23T02:18:26.890Z,50.4
2016-10-23T02:19:07.577Z,51.3
2016-10-23T02:19:48.296Z,51.47
2016-10-23T02:20:28.958Z,51.3
2016-10-23T02:21:09.609Z,51.1
2016-10-23T02:21:50.290Z,50.89
2016-10-23T02:22:30.994Z,51.08
2016-10-23T02:23:11.693Z,51.18
2016-10-23T02:23:52.353Z,50.89
2016-10-23T02:24:33.050Z,51.01
2016-10-23T02:25:13.707Z,50.98
2016-10-23T02:25:54.451Z,50.98
2016-10-23T02:26:35.126Z,50.98
2016-10-23T02:27:15.809Z,50.92
2016-10-23T02:27:56.498Z,51.1
2016-10-23T02:28:37.158Z,51.01
2016-10-23T02:29:17.822Z,51.1
2016-10-23T02:29:58.549Z,51.01
2016-10-23T02:30:39.225Z,51.01
2016-10-23T02:31:19.873Z,51.01
2016-10-23T02:32:00.593Z,50.92
2016-10-23T02:32:41.252Z,51.2
2016-10-23T02:33:21.908Z,51.01
2016-10-23T02:34:02.545Z,51.5
2016-10-23T02:34:43.198Z,50.92
2016-10-23T02:35:23.906Z,50.92
2016-10-23T02:36:04.594Z,51.1
2016-10-23T02:36:45.248Z,51.4
2016-10-23T02:37:25.976Z,50.98
2016-10-23T02:38:06.654Z,51.28
2016-10-23T02:38:47.348Z,51.1
2016-10-23T02:39:28.018Z,51.1
2016-10-23T02:40:08.709Z,50.92
2016-10-23T02:40:49.395Z,50.79
2016-10-23T02:41:30.091Z,51.28
2016-10-23T02:42:10.813Z,51.1
2016-10-23T02:42:51.515Z,50.92
2016-10-23T02:43:32.180Z,51.1
2016-10-23T02:44:12.870Z,51.01
2016-10-23T02:44:53.587Z,51.1
2016-10-23T02:45:34.260Z,51.2
2016-10-23T02:46:14.951Z,51.47
2016-10-23T02:46:55.645Z,51.01
2016-10-23T02:47:36.281Z,51.47
2016-10-23T02:48:16.933Z,51.3
2016-10-23T02:48:57.605Z,51.1
2016-10-23T02:49:38.269Z,51.1
2016-10-23T02:50:18.961Z,51.37
2016-10-23T02:50:59.646Z,50.98
2016-10-23T02:51:40.372Z,51.1
2016-10-23T02:52:21.037Z,51.2
2016-10-23T02:53:01.749Z,51.4
2016-10-23T02:53:42.393Z,51.4
2016-10-23T02:54:23.105Z,51.5
2016-10-23T02:55:03.818Z,50.79
2016-10-23T02:55:44.509Z,51.4
2016-10-23T02:56:25.197Z,50.79
2016-10-23T02:57:05.849Z,51.4
2016-10-23T02:57:46.570Z,51.3
2016-10-23T02:58:27.263Z,51.3
2016-10-23T02:59:07.967Z,51.3
2016-10-23T02:59:48.697Z,51.3
2016-10-23T03:00:29.347Z,51.4
2016-10-23T03:01:10.052Z,50.82
2016-10-23T03:01:50.734Z,50.92
2016-10-23T03:02:31.404Z,51.5
2016-10-23T03:03:12.053Z,51.3
2016-10-23T03:03:52.750Z,51.4
2016-10-23T03:04:33.451Z,51.28
2016-10-23T03:05:14.169Z,51.3
2016-10-23T03:05:54.866Z,51.47
2016-10-23T03:06:35.552Z,51.3
2016-10-23T03:07:16.235Z,51.3
2016-10-23T03:07:56.879Z,51.1
2016-10-23T03:08:37.549Z,51.2
2016-10-23T03:09:18.213Z,51.2
2016-10-23T03:09:58.892Z,51.68
2016-10-23T03:10:39.550Z,51.28
2016-10-23T03:11:20.245Z,51.4
2016-10-23T03:12:00.925Z,51.3
2016-10-23T03:12:41.610Z,51.5
2016-10-23T03:13:22.312Z,50.82
2016-10-23T03:14:03.037Z,51.2
2016-10-23T03:14:43.725Z,51.3
2016-10-23T03:15:24.424Z,51.5
2016-10-23T03:16:05.121Z,51.28
2016-10-23T03:16:45.802Z,51.3
2016-10-23T03:17:26.530Z,51.2
2016-10-23T03:18:07.244Z,51.4
2016-10-23T03:18:47.949Z,51.4
2016-10-23T03:19:28.649Z,51.4
2016-10-23T03:20:09.347Z,51.3
2016-10-23T03:20:50.007Z,51.3
2016-10-23T03:21:30.671Z,51.4
2016-10-23T03:22:11.348Z,51.3
2016-10-23T03:22:52.017Z,51.4
2016-10-23T03:23:32.686Z,51.3
2016-10-23T03:24:13.411Z,51.3
2016-10-23T03:24:54.091Z,51.3
2016-10-23T03:25:34.828Z,51.2
2016-10-23T03:26:15.497Z,51.3
2016-10-23T03:26:56.159Z,51.3
2016-10-23T03:27:36.827Z,51.2
2016-10-23T03:28:17.536Z,50.82
2016-10-23T03:28:58.270Z,51.3
2016-10-23T03:29:38.953Z,50.92
2016-10-23T03:30:19.612Z,51.3
2016-10-23T03:31:00.344Z,51.3
2016-10-23T03:31:40.994Z,51.4
2016-10-23T03:32:21.672Z,51.4
2016-10-23T03:33:02.401Z,51.3
2016-10-23T03:33:43.096Z,51.2
2016-10-23T03:34:23.780Z,51.2
2016-10-23T03:35:04.445Z,51.01
2016-10-23T03:35:45.161Z,51.3
2016-10-23T03:36:25.870Z,51.3
2016-10-23T03:37:06.554Z,51.5
2016-10-23T03:37:47.268Z,51.1
2016-10-23T03:38:27.946Z,51.3
2016-10-23T03:39:08.608Z,51.01
2016-10-23T03:39:49.272Z,51.3
2016-10-23T03:40:29.983Z,50.92
2016-10-23T03:41:10.663Z,50.92
2016-10-23T03:41:51.316Z,51.59
2016-10-23T03:42:31.956Z,51.59
2016-10-23T03:43:12.652Z,50.92
2016-10-23T03:43:53.324Z,51.3
2016-10-23T03:44:34.034Z,51.1
2016-10-23T03:45:14.720Z,51.18
2016-10-23T03:45:55.408Z,51.3
2016-10-23T03:46:36.060Z,51.3
2016-10-23T03:47:16.764Z,51.1
2016-10-23T03:47:57.416Z,51.1
2016-10-23T03:48:38.133Z,51.4
2016-10-23T03:49:18.768Z,51.1
2016-10-23T03:49:59.465Z,51.01
2016-10-23T03:50:40.150Z,51.2
2016-10-23T03:51:20.842Z,51.01
2016-10-23T03:52:01.476Z,51.1
2016-10-23T03:52:42.117Z,51.01
2016-10-23T03:53:22.836Z,51.01
2016-10-23T03:54:03.540Z,51.1
2016-10-23T03:54:44.194Z,51.1
2016-10-23T03:55:24.850Z,51.01
2016-10-23T03:56:05.552Z,51.2
2016-10-23T03:56:46.188Z,51.3
2016-10-23T03:57:26.881Z,51.4
2016-10-23T03:58:07.583Z,51.3
2016-10-23T03:58:48.254Z,51.1
2016-10-23T03:59:28.901Z,51.3
2016-10-23T04:00:09.611Z,51.2
2016-10-23T04:00:50.333Z,51.2
2016-10-23T04:01:31.037Z,51.1
2016-10-23T04:02:11.749Z,51.3
2016-10-23T04:02:52.438Z,51.4
2016-10-23T04:03:33.098Z,51.01
2016-10-23T04:04:13.762Z,51.5
2016-10-23T04:04:54.393Z,51.4
2016-10-23T04:05:35.066Z,51.1
2016-10-23T04:06:15.733Z,51.01
2016-10-23T04:06:56.412Z,51.4
2016-10-23T04:07:37.095Z,51.2
2016-10-23T04:08:17.762Z,51.4
2016-10-23T04:08:58.437Z,51.3
2016-10-23T04:09:39.150Z,51.1
2016-10-23T04:10:19.859Z,51.5
2016-10-23T04:11:00.536Z,51.4
2016-10-23T04:11:41.215Z,51.2
2016-10-23T04:12:21.897Z,51.4
2016-10-23T04:13:02.613Z,51.4
2016-10-23T04:13:43.304Z,51.3
2016-10-23T04:14:23.975Z,51.4
2016-10-23T04:15:04.694Z,51.5
2016-10-23T04:15:45.386Z,51.5
2016-10-23T04:16:26.069Z,51.5
2016-10-23T04:17:06.700Z,51.3
2016-10-23T04:17:47.377Z,51.59
2016-10-23T04:18:28.058Z,51.2
2016-10-23T04:19:08.740Z,51.4
2016-10-23T04:19:49.407Z,51.4
2016-10-23T04:20:30.129Z,51.3
2016-10-23T04:21:10.827Z,51.4
2016-10-23T04:21:51.500Z,51.3
2016-10-23T04:22:32.223Z,51.4
2016-10-23T04:23:12.887Z,51.3
2016-10-23T04:23:53.604Z,51.4
2016-10-23T04:24:34.284Z,51.2
2016-10-23T04:25:14.931Z,51.4
2016-10-23T04:25:55.589Z,51.3
2016-10-23T04:26:36.332Z,51.4
2016-10-23T04:27:16.990Z,51.4
2016-10-23T04:27:57.643Z,51.4
2016-10-23T04:28:38.345Z,51.3
2016-10-23T04:29:19.048Z,51.4
2016-10-23T04:29:59.787Z,51.4
2016-10-23T04:30:40.484Z,51.4
2016-10-23T04:31:21.182Z,51.59
2016-10-23T04:32:01.868Z,51.5
2016-10-23T04:32:42.559Z,51.4
2016-10-23T04:33:23.266Z,51.2
2016-10-23T04:34:03.961Z,51.59
2016-10-23T04:34:44.650Z,51.59
2016-10-23T04:35:25.353Z,51.3
2016-10-23T04:36:06.070Z,51.4
2016-10-23T04:36:46.777Z,51.3
2016-10-23T04:37:27.424Z,51.4
2016-10-23T04:38:08.119Z,51.5
2016-10-23T04:38:48.801Z,51.3
2016-10-23T04:39:29.459Z,51.59
2016-10-23T04:40:10.189Z,51.59
2016-10-23T04:40:50.832Z,51.5
2016-10-23T04:41:31.580Z,51.3
2016-10-23T04:42:12.240Z,51.68
2016-10-23T04:42:52.909Z,51.5
2016-10-23T04:43:33.552Z,51.5
2016-10-23T04:44:14.224Z,51.5
2016-10-23T04:44:54.891Z,51.3
2016-10-23T04:45:35.559Z,51.4
2016-10-23T04:46:16.217Z,51.5
2016-10-23T04:46:56.872Z,51.5
2016-10-23T04:47:37.573Z,51.4
2016-10-23T04:48:18.282Z,51.2
2016-10-23T04:48:58.980Z,51.4
2016-10-23T04:49:39.653Z,51.5
2016-10-23T04:50:20.307Z,51.59
2016-10-23T04:51:01.044Z,51.2
2016-10-23T04:51:41.743Z,51.5
2016-10-23T04:52:22.418Z,51.5
2016-10-23T04:53:03.100Z,51.5
2016-10-23T04:53:43.776Z,51.2
2016-10-23T04:54:24.444Z,51.3
2016-10-23T04:55:05.137Z,51.4
2016-10-23T04:55:45.801Z,51.68
2016-10-23T04:56:26.495Z,51.4
2016-10-23T04:57:07.182Z,51.5
2016-10-23T04:57:47.865Z,51.3
2016-10-23T04:58:28.544Z,51.4
2016-10-23T04:59:09.243Z,51.5
2016-10-23T04:59:49.913Z,51.4
2016-10-23T05:00:30.609Z,51.78
2016-10-23T05:01:11.300Z,51.2
2016-10-23T05:01:51.971Z,51.3
2016-10-23T05:02:32.598Z,51.59
2016-10-23T05:03:13.281Z,51.3
2016-10-23T05:03:53.983Z,51.59
2016-10-23T05:04:34.653Z,51.68
2016-10-23T05:05:15.375Z,51.68
2016-10-23T05:05:56.058Z,51.78
2016-10-23T05:06:36.752Z,51.4
2016-10-23T05:07:17.456Z,51.68
2016-10-23T05:07:58.119Z,51.59
2016-10-23T05:08:38.813Z,51.4
2016-10-23T05:09:19.466Z,51.5
2016-10-23T05:10:00.172Z,51.59
2016-10-23T05:10:40.844Z,51.5
2016-10-23T05:11:21.547Z,51.4
2016-10-23T05:12:02.213Z,51.4
2016-10-23T05:12:42.880Z,51.3
2016-10-23T05:13:23.561Z,51.3
2016-10-23T05:14:04.251Z,51.68
2016-10-23T05:14:44.968Z,51.4
2016-10-23T05:15:25.664Z,51.68
2016-10-23T05:16:06.309Z,51.68
2016-10-23T05:16:46.998Z,51.5
2016-10-23T05:17:27.734Z,51.78
2016-10-23T05:18:08.420Z,51.5
2016-10-23T05:18:49.097Z,51.59
2016-10-23T05:19:29.786Z,51.4
2016-10-23T05:20:10.509Z,51.1
2016-10-23T05:20:51.196Z,51.5
2016-10-23T05:21:31.889Z,51.4
2016-10-23T05:22:12.588Z,51.1
2016-10-23T05:22:53.300Z,51.1
2016-10-23T05:23:33.964Z,51.59
2016-10-23T05:24:14.661Z,51.68
2016-10-23T05:24:55.349Z,51.2
2016-10-23T05:25:35.986Z,51.4
2016-10-23T05:26:16.668Z,51.68
2016-10-23T05:26:57.323Z,51.5
2016-10-23T05:27:38.031Z,51.3
2016-10-23T05:28:18.706Z,51.3
2016-10-23T05:28:59.376Z,51.4
2016-10-23T05:29:40.105Z,51.78
2016-10-23T05:30:20.820Z,51.78
2016-10-23T05:31:01.459Z,51.78
2016-10-23T05:31:42.121Z,51.5
2016-10-23T05:32:22.809Z,51.68
2016-10-23T05:33:03.473Z,51.88
2016-10-23T05:33:44.126Z,51.78
2016-10-23T05:34:24.800Z,51.88
2016-10-23T05:35:05.488Z,51.98
2016-10-23T05:35:46.170Z,51.98
2016-10-23T05:36:26.849Z,51.5
2016-10-23T05:37:07.512Z,51.4
2016-10-23T05:37:48.731Z,51.98
2016-10-23T05:38:29.404Z,51.88
2016-10-23T05:39:10.096Z,51.88
2016-10-23T05:39:50.780Z,52.08
2016-10-23T05:40:31.467Z,51.98
2016-10-23T05:41:12.169Z,51.98
2016-10-23T05:41:52.820Z,51.88
2016-10-23T05:42:33.510Z,51.78
2016-10-23T05:43:14.144Z,51.59
2016-10-23T05:43:54.830Z,51.59
2016-10-23T05:44:35.501Z,51.98
2016-10-23T05:45:16.177Z,51.59
2016-10-23T05:45:56.860Z,51.59
2016-10-23T05:46:37.539Z,52.46
2016-10-23T05:47:18.210Z,51.88
2016-10-23T05:47:58.899Z,51.98
2016-10-23T05:48:39.589Z,51.98
2016-10-23T05:49:20.271Z,51.5
2016-10-23T05:50:00.929Z,52.17
2016-10-23T05:50:41.642Z,52.17
2016-10-23T05:51:22.340Z,52.36
2016-10-23T05:52:03.019Z,52.17
2016-10-23T05:52:43.706Z,51.68
2016-10-23T05:53:24.361Z,52.17
2016-10-23T05:54:05.008Z,51.68
2016-10-23T05:54:45.657Z,52.27
2016-10-23T05:55:26.371Z,52.17
2016-10-23T05:56:07.034Z,52.27
2016-10-23T05:56:47.710Z,52.08
2016-10-23T05:57:28.387Z,52.17
2016-10-23T05:58:09.055Z,52.17
2016-10-23T05:58:49.741Z,52.17
2016-10-23T05:59:30.432Z,52.17
2016-10-23T06:00:11.138Z,52.08
2016-10-23T06:00:51.799Z,52.17
2016-10-23T06:01:32.476Z,52.27
2016-10-23T06:02:13.172Z,52.27
2016-10-23T06:02:53.838Z,52.17
2016-10-23T06:03:34.513Z,52.08
2016-10-23T06:04:15.214Z,52.27
2016-10-23T06:04:55.869Z,52.17
2016-10-23T06:05:36.572Z,52.17
2016-10-23T06:06:17.245Z,52.08
2016-10-23T06:06:57.923Z,52.17
2016-10-23T06:07:38.628Z,52.46
2016-10-23T06:08:19.343Z,52.08
2016-10-23T06:09:00.082Z,52.27
2016-10-23T06:09:40.766Z,52.27
2016-10-23T06:10:21.474Z,52.08
2016-10-23T06:11:02.160Z,52.36
2016-10-23T06:11:42.815Z,52.17
2016-10-23T06:12:23.512Z,52.17
2016-10-23T06:13:04.194Z,52.27
2016-10-23T06:13:44.876Z,52.27
2016-10-23T06:14:25.565Z,52.17
2016-10-23T06:15:06.251Z,52.27
2016-10-23T06:15:46.867Z,52.17
2016-10-23T06:16:27.487Z,52.27
2016-10-23T06:17:08.177Z,52.17
2016-10-23T06:17:48.890Z,52.08
2016-10-23T06:18:29.537Z,52.17
2016-10-23T06:19:10.194Z,52.08
2016-10-23T06:19:50.863Z,52.36
2016-10-23T06:20:31.614Z,52.08
2016-10-23T06:21:12.296Z,52.17
2016-10-23T06:21:53.012Z,52.17
2016-10-23T06:22:33.656Z,52.17
2016-10-23T06:23:14.327Z,52.08
2016-10-23T06:23:55.004Z,52.08
2016-10-23T06:24:35.689Z,52.17
2016-10-23T06:25:16.375Z,52.17
2016-10-23T06:25:57.074Z,52.08
2016-10-23T06:26:37.735Z,52.27
2016-10-23T06:27:18.393Z,52.08
2016-10-23T06:27:59.085Z,51.98
2016-10-23T06:28:39.758Z,51.78
2016-10-23T06:29:20.448Z,51.98
2016-10-23T06:30:01.068Z,52.27
2016-10-23T06:30:41.750Z,52.17
2016-10-23T06:31:22.498Z,52.08
2016-10-23T06:32:03.186Z,52.08
2016-10-23T06:32:43.884Z,52.08
2016-10-23T06:33:24.605Z,52.17
2016-10-23T06:34:05.300Z,52.17
2016-10-23T06:34:46.014Z,52.27
2016-10-23T06:35:26.727Z,51.88
2016-10-23T06:36:07.390Z,52.08
2016-10-23T06:36:48.067Z,51.98
2016-10-23T06:37:28.758Z,52.08
2016-10-23T06:38:09.434Z,52.08
2016-10-23T06:38:50.100Z,52.17
2016-10-23T06:39:30.751Z,52.08
2016-10-23T06:40:11.449Z,52.17
2016-10-23T06:40:52.139Z,52.17
2016-10-23T06:41:32.850Z,51.98
2016-10-23T06:42:13.551Z,52.27
2016-10-23T06:42:54.257Z,51.88
2016-10-23T06:43:34.979Z,52.17
2016-10-23T06:44:15.632Z,52.17
2016-10-23T06:44:56.326Z,52.08
2016-10-23T06:45:36.970Z,52.17
2016-10-23T06:46:17.663Z,52.17
2016-10-23T06:46:58.359Z,52.08
2016-10-23T06:47:39.079Z,52.08
2016-10-23T06:48:19.780Z,52.08
2016-10-23T06:49:00.459Z,52.08
2016-10-23T06:49:41.170Z,52.17
2016-10-23T06:50:21.825Z,52.08
2016-10-23T06:51:02.485Z,52.08
2016-10-23T06:51:43.168Z,52.27
2016-10-23T06:52:23.844Z,52.17
2016-10-23T06:53:04.531Z,52.08
2016-10-23T06:53:45.188Z,52.27
2016-10-23T06:54:25.904Z,51.98
2016-10-23T06:55:06.588Z,52.17
2016-10-23T06:55:47.243Z,52.36
2016-10-23T06:56:27.943Z,52.36
2016-10-23T06:57:08.650Z,52.17
2016-10-23T06:57:49.280Z,52.08
2016-10-23T06:58:29.954Z,52.08
2016-10-23T06:59:11.404Z,52.08
2016-10-23T06:59:52.149Z,52.27
2016-10-23T07:00:32.838Z,52.08
2016-10-23T07:01:13.586Z,52.17
2016-10-23T07:01:54.254Z,52.08
2016-10-23T07:02:34.961Z,52.27
2016-10-23T07:03:15.685Z,52.27
2016-10-23T07:03:56.378Z,52.17
2016-10-23T07:04:37.042Z,52.27
2016-10-23T07:05:17.725Z,52.17
2016-10-23T07:05:58.414Z,52.08
2016-10-23T07:06:39.071Z,52.08
2016-10-23T07:07:19.757Z,52.17
2016-10-23T07:08:00.447Z,52.08
2016-10-23T07:08:41.171Z,52.27
2016-10-23T07:09:21.848Z,52.08
2016-10-23T07:10:03.247Z,52.27
2016-10-23T07:10:43.946Z,52.08
2016-10-23T07:11:24.636Z,52.36
2016-10-23T07:12:05.322Z,52.08
2016-10-23T07:12:46.045Z,52.36
2016-10-23T07:13:26.727Z,51.98
2016-10-23T07:14:07.427Z,51.98
2016-10-23T07:14:48.118Z,52.27
2016-10-23T07:15:28.773Z,51.98
2016-10-23T07:16:09.444Z,51.98
2016-10-23T07:16:50.120Z,52.46
2016-10-23T07:17:30.813Z,52.17
2016-10-23T07:18:11.502Z,52.08
2016-10-23T07:18:52.210Z,52.17
2016-10-23T07:19:32.905Z,51.88
2016-10-23T07:20:13.594Z,52.36
2016-10-23T07:20:54.254Z,52.27
2016-10-23T07:21:34.929Z,52.08
2016-10-23T07:22:15.583Z,52.17
2016-10-23T07:22:56.287Z,52.56
2016-10-23T07:23:36.980Z,52.27
2016-10-23T07:24:17.646Z,52.08
2016-10-23T07:24:58.328Z,52.17
2016-10-23T07:25:39.037Z,52.17
2016-10-23T07:26:19.715Z,52.17
2016-10-23T07:27:00.432Z,51.98
2016-10-23T07:27:41.136Z,52.36
2016-10-23T07:28:21.780Z,52.08
2016-10-23T07:29:02.519Z,51.98
2016-10-23T07:29:43.173Z,52.08
2016-10-23T07:30:23.863Z,52.27
2016-10-23T07:31:04.506Z,52.27
2016-10-23T07:31:45.186Z,52.36
2016-10-23T07:32:25.908Z,52.56
2016-10-23T07:33:06.562Z,52.17
2016-10-23T07:33:47.251Z,52.27
2016-10-23T07:34:27.969Z,51.98
2016-10-23T07:35:08.651Z,52.17
2016-10-23T07:35:49.331Z,51.98
2016-10-23T07:36:30.047Z,52.17
2016-10-23T07:37:10.670Z,52.36
2016-10-23T07:37:51.319Z,52.17
2016-10-23T07:38:32.014Z,52.08
2016-10-23T07:39:12.708Z,52.27
2016-10-23T07:39:53.423Z,51.98
2016-10-23T07:40:34.102Z,52.17
2016-10-23T07:41:14.791Z,51.88
2016-10-23T07:41:55.477Z,52.08
2016-10-23T07:42:36.157Z,52.08
2016-10-23T07:43:16.846Z,52.08
2016-10-23T07:43:57.590Z,52.27
2016-10-23T07:44:38.243Z,52.36
2016-10-23T07:45:18.986Z,52.08
2016-10-23T07:45:59.733Z,52.08
2016-10-23T07:46:40.431Z,52.08
2016-10-23T07:47:21.108Z,52.08
2016-10-23T07:48:01.797Z,52.08
2016-10-23T07:48:42.495Z,52.27
2016-10-23T07:49:23.148Z,52.08
2016-10-23T07:50:03.828Z,52.08
2016-10-23T07:50:44.475Z,52.08
2016-10-23T07:51:25.225Z,52.08
2016-10-23T07:52:05.895Z,52.08
2016-10-23T07:52:46.634Z,52.17
2016-10-23T07:53:27.336Z,52.08
2016-10-23T07:54:07.987Z,52.1
2016-10-23T07:54:48.671Z,52.2
2016-10-23T07:55:29.318Z,52.17
2016-10-23T07:56:10.008Z,51.88
2016-10-23T07:56:50.705Z,52.08
2016-10-23T07:57:31.376Z,52.17
2016-10-23T07:58:12.121Z,52.08
2016-10-23T07:58:52.826Z,52.17
2016-10-23T07:59:34.210Z,52.2
2016-10-23T08:00:14.227Z,52.2
2016-10-23T08:00:54.915Z,52.17
2016-10-23T08:01:35.644Z,52.27
2016-10-23T08:02:17.248Z,52.27
2016-10-23T08:02:57.943Z,52.2
2016-10-23T08:03:38.608Z,52
2016-10-23T08:04:19.313Z,52.27
2016-10-23T08:05:00.028Z,51.72
2016-10-23T08:05:40.687Z,51.52
2016-10-23T08:06:21.365Z,52.08
2016-10-23T08:07:02.080Z,52.1
2016-10-23T08:07:42.813Z,51.81
2016-10-23T08:08:23.512Z,51.78
2016-10-23T08:09:04.204Z,52.1
2016-10-23T08:09:44.894Z,51.81
2016-10-23T08:10:25.623Z,51.62
2016-10-23T08:11:06.367Z,51.62
2016-10-23T08:11:47.014Z,51.42
2016-10-23T08:12:27.746Z,51.52
2016-10-23T08:13:09.302Z,51.81
2016-10-23T08:13:50.003Z,51.52
2016-10-23T08:14:30.653Z,51.52
2016-10-23T08:15:11.348Z,51.81
2016-10-23T08:15:51.961Z,51.72
2016-10-23T08:16:32.639Z,51.52
2016-10-23T08:17:13.293Z,51.52
2016-10-23T08:17:54.039Z,51.81
2016-10-23T08:18:34.721Z,51.52
2016-10-23T08:19:15.440Z,51.72
2016-10-23T08:19:56.119Z,51.52
2016-10-23T08:20:36.772Z,51.52
2016-10-23T08:21:17.477Z,51.42
2016-10-23T08:21:58.126Z,51.72
2016-10-23T08:22:38.811Z,51.72
2016-10-23T08:23:19.534Z,51.52
2016-10-23T08:24:00.160Z,51.52
2016-10-23T08:24:40.866Z,51.32
2016-10-23T08:25:21.565Z,51.13
2016-10-23T08:26:02.294Z,51.32
2016-10-23T08:26:42.971Z,51.23
2016-10-23T08:27:23.682Z,51.32
2016-10-23T08:28:04.362Z,51.23
2016-10-23T08:28:45.737Z,51.52
2016-10-23T08:29:25.739Z,51.23
2016-10-23T08:30:06.454Z,51.32
2016-10-23T08:30:47.154Z,51.42
2016-10-23T08:31:27.869Z,51.52
2016-10-23T08:32:09.229Z,51.23
2016-10-23T08:32:49.296Z,51.32
2016-10-23T08:33:29.958Z,51.23
2016-10-23T08:34:10.621Z,51.32
2016-10-23T08:34:51.296Z,51.32
2016-10-23T08:35:32.013Z,51.52
2016-10-23T08:36:12.689Z,51.42
2016-10-23T08:36:53.374Z,51.32
2016-10-23T08:37:34.094Z,51.42
2016-10-23T08:38:14.719Z,51.42
2016-10-23T08:38:55.436Z,51.32
2016-10-23T08:39:36.169Z,51.23
2016-10-23T08:40:16.840Z,51.52
2016-10-23T08:40:57.511Z,51.32
2016-10-23T08:41:38.214Z,51.32
2016-10-23T08:42:18.901Z,51.32
2016-10-23T08:42:59.676Z,51.52
2016-10-23T08:43:40.363Z,51.32
2016-10-23T08:44:21.028Z,51.32
2016-10-23T08:45:01.742Z,51.42
2016-10-23T08:45:42.472Z,51.32
2016-10-23T08:46:23.139Z,51.52
2016-10-23T08:47:03.806Z,51.42
2016-10-23T08:47:44.471Z,51.13
2016-10-23T08:48:25.209Z,51.52
2016-10-23T08:49:05.900Z,51.23
2016-10-23T08:49:46.624Z,51.04